createdAt,value
2018-04-13T00:00:13.308Z,124.40
2018-04-13T00:02:40.732Z,120.93
2018-04-13T00:05:08.937Z,125.13
2018-04-13T00:07:36.393Z,130.23
2018-04-13T00:10:03.852Z,136.10
2018-04-13T00:12:31.293Z,131.10
2018-04-13T00:14:58.737Z,138.00
2018-04-13T00:17:26.179Z,147.13
2018-04-13T00:19:53.617Z,137.83
2018-04-13T00:22:21.049Z,151.47
2018-04-13T00:24:48.939Z,142.00
2018-04-13T00:27:16.411Z,145.37
2018-04-13T00:29:43.835Z,151.83
2018-04-13T00:32:11.276Z,152.03
2018-04-13T00:34:38.715Z,151.00
2018-04-13T00:37:06.163Z,153.93
2018-04-13T00:39:33.591Z,158.43
2018-04-13T00:42:01.801Z,172.37
2018-04-13T00:44:29.233Z,187.00
2018-04-13T00:46:57.447Z,180.70
2018-04-13T00:49:24.885Z,175.23
2018-04-13T00:51:52.328Z,176.63
2018-04-13T00:54:19.763Z,164.13
2018-04-13T00:56:47.969Z,191.80
2018-04-13T00:59:15.413Z,208.53
2018-04-13T01:01:42.849Z,187.93
2018-04-13T01:04:11.051Z,201.80
2018-04-13T01:06:38.496Z,193.33
2018-04-13T01:09:05.968Z,201.53
2018-04-13T01:11:33.407Z,200.80
2018-04-13T01:14:00.849Z,176.17
2018-04-13T01:16:29.057Z,173.20
2018-04-13T01:18:56.492Z,189.80
2018-04-13T01:21:23.932Z,195.43
2018-04-13T01:23:52.133Z,211.73
2018-04-13T01:26:19.577Z,197.67
2018-04-13T01:28:47.013Z,196.13
2018-04-13T01:31:15.216Z,154.70
2018-04-13T01:33:42.661Z,162.10
2018-04-13T01:36:10.096Z,173.50
2018-04-13T01:38:38.301Z,193.80
2018-04-13T01:41:05.808Z,192.07
2018-04-13T01:43:33.245Z,186.93
2018-04-13T01:46:00.700Z,157.27
2018-04-13T01:48:28.154Z,197.03
2018-04-13T01:50:55.600Z,164.03
2018-04-13T01:53:23.036Z,150.63
2018-04-13T01:55:50.481Z,160.60
2018-04-13T01:58:17.920Z,171.17
2018-04-13T02:00:46.126Z,172.27
2018-04-13T02:03:13.571Z,186.77
2018-04-13T02:05:41.034Z,169.33
2018-04-13T02:08:08.472Z,166.50
2018-04-13T02:10:35.909Z,146.60
2018-04-13T02:13:04.116Z,162.30
2018-04-13T02:15:31.552Z,158.07
2018-04-13T02:17:59.000Z,170.83
2018-04-13T02:20:27.204Z,173.93
2018-04-13T02:22:54.681Z,191.37
2018-04-13T02:25:22.092Z,172.37
2018-04-13T02:27:49.539Z,173.67
2018-04-13T02:30:17.744Z,155.43
2018-04-13T02:32:45.189Z,164.63
2018-04-13T02:35:12.621Z,173.27
2018-04-13T02:37:40.834Z,165.93
2018-04-13T02:40:08.269Z,196.13
2018-04-13T02:42:35.725Z,228.43
2018-04-13T02:45:03.159Z,256.23
2018-04-13T02:47:31.364Z,272.63
2018-04-13T02:49:58.791Z,239.53
2018-04-13T02:52:27.010Z,229.93
2018-04-13T02:54:54.442Z,196.47
2018-04-13T02:57:21.881Z,179.43
2018-04-13T02:59:50.320Z,168.23
2018-04-13T03:02:17.762Z,266.27
2018-04-13T03:04:45.193Z,228.37
2018-04-13T03:07:12.631Z,210.13
2018-04-13T03:09:40.074Z,213.20
2018-04-13T03:12:08.277Z,189.70
2018-04-13T03:14:35.716Z,193.13
2018-04-13T03:17:03.161Z,193.43
2018-04-13T03:19:31.357Z,204.50
2018-04-13T03:21:58.800Z,244.03
2018-04-13T03:24:26.246Z,342.07
2018-04-13T03:26:54.445Z,274.33
2018-04-13T03:29:21.878Z,233.23
2018-04-13T03:31:51.284Z,211.83
2018-04-13T03:34:19.484Z,246.00
2018-04-13T03:36:46.930Z,251.40
2018-04-13T03:39:14.383Z,180.70
2018-04-13T03:41:41.841Z,169.07
2018-04-13T03:44:09.278Z,156.07
2018-04-13T03:46:37.481Z,147.20
2018-04-13T03:49:05.861Z,151.30
2018-04-13T03:51:33.293Z,135.47
2018-04-13T03:54:00.731Z,136.70
2018-04-13T03:56:28.930Z,126.27
2018-04-13T03:58:56.368Z,152.77
2018-04-13T04:01:23.800Z,251.97
2018-04-13T04:03:51.240Z,222.40
2018-04-13T04:06:18.669Z,187.27
2018-04-13T04:08:46.116Z,171.27
2018-04-13T04:11:13.563Z,168.03
2018-04-13T04:13:41.004Z,151.93
2018-04-13T04:16:08.436Z,197.57
2018-04-13T04:18:36.649Z,154.80
2018-04-13T04:21:16.018Z,175.60
2018-04-13T04:23:55.422Z,182.17
2018-04-13T04:26:34.813Z,178.77
2018-04-13T04:29:03.023Z,172.53
2018-04-13T04:31:30.467Z,170.83
2018-04-13T04:33:58.661Z,180.50
2018-04-13T04:36:26.101Z,184.70
2018-04-13T04:38:53.549Z,165.43
2018-04-13T04:41:21.744Z,171.87
2018-04-13T04:43:49.191Z,166.47
2018-04-13T04:46:16.612Z,184.43
2018-04-13T04:48:44.844Z,153.63
2018-04-13T04:51:12.280Z,142.17
2018-04-13T04:53:39.721Z,158.30
2018-04-13T04:56:07.153Z,189.60
2018-04-13T04:58:35.362Z,193.20
2018-04-13T05:01:02.793Z,279.27
2018-04-13T05:03:30.991Z,235.67
2018-04-13T05:05:58.418Z,222.70
2018-04-13T05:08:26.628Z,198.50
2018-04-13T05:10:54.060Z,162.30
2018-04-13T05:13:21.496Z,125.63
2018-04-13T05:15:49.697Z,132.97
2018-04-13T05:18:17.158Z,134.27
2018-04-13T05:20:44.601Z,126.20
2018-04-13T05:23:12.796Z,130.03
2018-04-13T05:25:40.227Z,127.43
2018-04-13T05:28:07.681Z,124.83
2018-04-13T05:30:35.877Z,164.80
2018-04-13T05:33:03.332Z,158.60
2018-04-13T05:35:30.773Z,160.83
2018-04-13T05:37:58.225Z,199.87
2018-04-13T05:40:25.657Z,208.73
2018-04-13T05:42:53.092Z,246.87
2018-04-13T05:45:20.531Z,206.53
2018-04-13T05:47:47.983Z,196.83
2018-04-13T05:50:15.413Z,163.97
2018-04-13T05:52:42.858Z,163.13
2018-04-13T05:55:11.051Z,161.20
2018-04-13T05:57:38.494Z,167.80
2018-04-13T06:00:05.932Z,195.17
2018-04-13T06:02:34.145Z,180.80
2018-04-13T06:05:01.589Z,184.07
2018-04-13T06:07:29.037Z,185.67
2018-04-13T06:09:56.485Z,155.80
2018-04-13T06:12:23.927Z,155.33
2018-04-13T06:14:52.163Z,142.63
2018-04-13T06:17:19.577Z,145.83
2018-04-13T06:19:47.020Z,137.53
2018-04-13T06:22:15.216Z,132.67
2018-04-13T06:24:42.714Z,133.10
2018-04-13T06:27:10.144Z,130.07
2018-04-13T06:29:37.615Z,123.50
2018-04-13T06:32:05.020Z,126.47
2018-04-13T06:34:32.455Z,127.10
2018-04-13T06:37:00.662Z,126.07
2018-04-13T06:39:28.125Z,116.27
2018-04-13T06:41:55.559Z,110.47
2018-04-13T06:44:23.006Z,111.10
2018-04-13T06:46:51.210Z,119.60
2018-04-13T06:49:18.665Z,115.17
2018-04-13T06:51:46.103Z,112.40
2018-04-13T06:54:13.556Z,113.17
2018-04-13T06:56:40.999Z,108.47
2018-04-13T06:59:09.532Z,99.80
2018-04-13T07:01:36.984Z,102.47
2018-04-13T07:04:04.428Z,108.70
2018-04-13T07:06:31.872Z,102.03
2018-04-13T07:08:59.323Z,100.17
2018-04-13T07:11:26.748Z,98.87
2018-04-13T07:13:54.189Z,98.97
2018-04-13T07:16:21.620Z,98.03
2018-04-13T07:18:49.071Z,96.17
2018-04-13T07:21:16.514Z,94.00
2018-04-13T07:23:43.952Z,92.47
2018-04-13T07:26:11.389Z,96.27
2018-04-13T07:28:39.585Z,90.87
2018-04-13T07:31:07.016Z,86.93
2018-04-13T07:33:35.213Z,92.50
2018-04-13T07:36:02.652Z,95.43
2018-04-13T07:38:30.857Z,89.13
2018-04-13T07:40:58.312Z,89.27
2018-04-13T07:43:25.748Z,93.67
2018-04-13T07:45:53.214Z,85.43
2018-04-13T07:48:20.665Z,79.37
2018-04-13T07:50:48.864Z,82.27
2018-04-13T07:53:16.293Z,79.10
2018-04-13T07:55:43.744Z,80.60
2018-04-13T07:58:12.334Z,77.83
2018-04-13T08:00:39.374Z,84.87
2018-04-13T08:03:06.829Z,81.60
2018-04-13T08:05:34.261Z,88.50
2018-04-13T08:08:02.460Z,93.10
2018-04-13T08:10:29.921Z,83.13
2018-04-13T08:12:57.353Z,80.17
2018-04-13T08:15:25.565Z,83.43
2018-04-13T08:17:53.012Z,86.10
2018-04-13T08:20:20.470Z,88.00
2018-04-13T08:22:47.900Z,87.90
2018-04-13T08:25:16.117Z,82.47
2018-04-13T08:27:43.552Z,83.30
2018-04-13T08:30:11.040Z,81.57
2018-04-13T08:32:38.429Z,85.77
2018-04-13T08:35:06.649Z,83.23
2018-04-13T08:37:34.092Z,80.17
2018-04-13T08:40:01.525Z,81.63
2018-04-13T08:42:29.729Z,78.90
2018-04-13T08:44:57.176Z,79.90
2018-04-13T08:47:24.621Z,81.77
2018-04-13T08:49:52.062Z,80.20
2018-04-13T08:52:20.256Z,78.67
2018-04-13T08:54:47.692Z,79.57
2018-04-13T08:57:15.895Z,84.03
2018-04-13T08:59:43.331Z,80.70
2018-04-13T09:02:10.757Z,78.87
2018-04-13T09:04:38.192Z,73.17
2018-04-13T09:07:05.633Z,77.87
2018-04-13T09:09:33.067Z,74.80
2018-04-13T09:12:00.519Z,73.03
2018-04-13T09:14:39.712Z,68.20
2018-04-13T09:17:07.148Z,60.03
2018-04-13T09:19:34.588Z,62.97
2018-04-13T09:22:02.024Z,56.77
2018-04-13T09:24:29.474Z,58.63
2018-04-13T09:26:57.157Z,50.53
2018-04-13T09:29:25.128Z,50.73
2018-04-13T09:31:52.549Z,48.53
2018-04-13T09:34:19.980Z,49.87
2018-04-13T09:36:48.189Z,49.10
2018-04-13T09:39:15.647Z,44.33
2018-04-13T09:41:43.076Z,47.00
2018-04-13T09:44:11.264Z,48.23
2018-04-13T09:46:38.708Z,45.70
2018-04-13T09:49:06.137Z,44.97
2018-04-13T09:51:33.581Z,41.83
2018-04-13T09:54:01.008Z,34.83
2018-04-13T09:56:28.452Z,33.90
2018-04-13T09:58:55.896Z,36.70
2018-04-13T10:01:23.333Z,30.93
2018-04-13T10:03:57.224Z,29.80
2018-04-13T10:06:24.669Z,31.17
2018-04-13T10:08:52.092Z,28.67
2018-04-13T10:11:19.538Z,29.17
2018-04-13T10:13:46.989Z,28.00
2018-04-13T10:16:14.437Z,31.07
2018-04-13T10:18:41.860Z,33.07
2018-04-13T10:21:10.070Z,35.00
2018-04-13T10:23:37.492Z,33.50
2018-04-13T10:26:05.696Z,36.07
2018-04-13T10:28:33.132Z,32.53
2018-04-13T10:31:01.345Z,31.73
2018-04-13T10:33:28.781Z,30.67
2018-04-13T10:35:56.213Z,30.70
2018-04-13T10:38:24.413Z,33.90
2018-04-13T10:40:51.884Z,34.03
2018-04-13T10:43:19.299Z,31.43
2018-04-13T10:45:47.507Z,31.13
2018-04-13T10:48:14.934Z,32.83
2018-04-13T10:50:42.377Z,30.40
2018-04-13T10:53:10.573Z,30.20
2018-04-13T10:55:38.006Z,30.40
2018-04-13T10:58:06.211Z,32.23
2018-04-13T11:00:33.648Z,31.77
2018-04-13T11:03:01.088Z,29.90
2018-04-13T11:05:29.290Z,32.80
2018-04-13T11:07:56.733Z,32.13
2018-04-13T11:10:24.156Z,29.83
2018-04-13T11:12:51.597Z,26.63
2018-04-13T11:15:19.044Z,28.20
2018-04-13T11:17:46.472Z,23.23
2018-04-13T11:20:14.339Z,23.53
2018-04-13T11:22:41.765Z,23.93
2018-04-13T11:25:09.965Z,22.37
2018-04-13T11:27:37.411Z,21.40
2018-04-13T11:30:04.844Z,23.53
2018-04-13T11:32:33.050Z,22.67
2018-04-13T11:35:00.485Z,22.83
2018-04-13T11:37:28.700Z,20.30
2018-04-13T11:39:56.161Z,19.80
2018-04-13T11:42:23.619Z,19.10
2018-04-13T11:44:51.045Z,18.43
2018-04-13T11:47:18.480Z,15.47
2018-04-13T11:49:45.911Z,14.73
2018-04-13T11:52:13.348Z,14.60
2018-04-13T11:54:40.795Z,14.80
2018-04-13T11:57:08.233Z,14.33
2018-04-13T11:59:35.664Z,14.13
2018-04-13T12:02:03.275Z,13.00
2018-04-13T12:04:31.509Z,19.13
2018-04-13T12:06:58.936Z,14.77
2018-04-13T12:09:27.141Z,14.37
2018-04-13T12:11:54.591Z,15.25
2018-04-13T12:14:22.016Z,13.63
2018-04-13T12:16:50.236Z,14.67
2018-04-13T12:19:17.665Z,16.67
2018-04-13T12:21:45.114Z,16.67
2018-04-13T12:24:12.543Z,18.03
2018-04-13T12:26:39.981Z,18.20
2018-04-13T12:29:07.424Z,17.13
2018-04-13T12:31:34.860Z,17.43
2018-04-13T12:34:02.300Z,19.63
2018-04-13T12:36:29.736Z,18.37
2018-04-13T12:38:57.952Z,22.60
2018-04-13T12:41:25.395Z,22.63
2018-04-13T12:43:52.825Z,20.43
2018-04-13T12:46:21.042Z,21.53
2018-04-13T12:48:48.488Z,20.87
2018-04-13T12:51:15.920Z,22.67
2018-04-13T12:53:43.377Z,24.23
2018-04-13T12:56:11.640Z,22.03
2018-04-13T12:58:39.004Z,22.70
2018-04-13T13:01:06.441Z,26.33
2018-04-13T13:03:34.648Z,24.27
2018-04-13T13:06:02.082Z,24.23
2018-04-13T13:08:30.284Z,24.80
2018-04-13T13:10:57.716Z,24.80
2018-04-13T13:13:25.159Z,25.27
2018-04-13T13:15:53.357Z,26.67
2018-04-13T13:18:20.787Z,29.30
2018-04-13T13:20:48.981Z,28.53
2018-04-13T13:23:16.437Z,29.67
2018-04-13T13:25:43.870Z,28.37
2018-04-13T13:28:12.080Z,27.23
2018-04-13T13:30:39.530Z,31.83
2018-04-13T13:33:06.965Z,29.23
2018-04-13T13:35:34.400Z,33.30
2018-04-13T13:38:01.844Z,29.03
2018-04-13T13:40:29.277Z,29.40
2018-04-13T13:42:57.482Z,26.13
2018-04-13T13:45:24.916Z,29.40
2018-04-13T13:47:52.361Z,28.33
2018-04-13T13:50:19.808Z,29.23
2018-04-13T13:52:47.265Z,30.63
2018-04-13T13:55:14.720Z,29.97
2018-04-13T13:57:42.165Z,28.47
2018-04-13T14:00:09.596Z,30.27
2018-04-13T14:02:37.041Z,27.63
2018-04-13T14:05:05.245Z,29.30
2018-04-13T14:07:33.217Z,29.20
2018-04-13T14:10:00.652Z,29.27
2018-04-13T14:12:28.076Z,29.47
2018-04-13T14:14:55.572Z,28.00
2018-04-13T14:17:22.957Z,30.80
2018-04-13T14:19:50.398Z,29.43
2018-04-13T14:22:17.847Z,30.10
2018-04-13T14:24:45.280Z,30.57
2018-04-13T14:27:12.709Z,28.87
2018-04-13T14:29:40.144Z,25.50
2018-04-13T14:32:07.585Z,29.87
2018-04-13T14:34:35.039Z,30.70
2018-04-13T14:37:02.468Z,27.20
2018-04-13T14:39:29.920Z,27.17
2018-04-13T14:41:57.360Z,27.53
2018-04-13T14:44:25.583Z,31.33
2018-04-13T14:46:53.012Z,30.43
2018-04-13T14:49:20.445Z,28.30
2018-04-13T14:51:48.645Z,30.33
2018-04-13T14:54:16.106Z,29.20
2018-04-13T14:56:43.524Z,29.33
2018-04-13T14:59:11.743Z,28.80
2018-04-13T15:01:40.120Z,29.50
2018-04-13T15:04:07.564Z,27.50
2018-04-13T15:06:34.997Z,26.13
2018-04-13T15:09:03.206Z,27.23
2018-04-13T15:11:30.652Z,29.83
2018-04-13T15:13:58.093Z,30.97
2018-04-13T15:16:25.525Z,29.60
2018-04-13T15:18:53.727Z,30.63
2018-04-13T15:21:21.154Z,31.43
2018-04-13T15:23:49.362Z,29.63
2018-04-13T15:26:16.794Z,28.40
2018-04-13T15:28:44.997Z,30.37
2018-04-13T15:31:12.425Z,35.13
2018-04-13T15:33:39.868Z,29.23
2018-04-13T15:36:08.061Z,28.47
2018-04-13T15:38:35.492Z,29.07
2018-04-13T15:41:03.700Z,30.10
2018-04-13T15:43:31.142Z,31.33
2018-04-13T15:45:58.576Z,34.03
2018-04-13T15:50:51.464Z,31.37
2018-04-13T15:53:18.898Z,34.63
2018-04-13T15:55:47.111Z,33.77
2018-04-13T15:58:14.531Z,34.60
2018-04-13T16:00:42.741Z,38.67
2018-04-13T16:03:10.674Z,41.27
2018-04-13T16:05:38.886Z,37.27
2018-04-13T16:08:06.334Z,37.70
2018-04-13T16:10:33.772Z,39.07
2018-04-13T16:13:01.210Z,39.93
2018-04-13T16:15:29.421Z,41.70
2018-04-13T16:17:57.489Z,37.30
2018-04-13T16:20:24.919Z,37.93
2018-04-13T16:22:52.362Z,38.20
2018-04-13T16:25:19.789Z,35.10
2018-04-13T16:27:47.244Z,36.77
2018-04-13T16:30:14.697Z,35.00
2018-04-13T16:32:42.136Z,35.93
2018-04-13T16:35:09.579Z,34.27
2018-04-13T16:37:37.004Z,33.17
2018-04-13T16:40:05.220Z,35.20
2018-04-13T16:42:32.669Z,33.30
2018-04-13T16:45:00.121Z,33.37
2018-04-13T16:47:27.533Z,36.13
2018-04-13T16:49:55.738Z,33.53
2018-04-13T16:52:23.167Z,31.73
2018-04-13T16:54:51.369Z,35.90
2018-04-13T16:57:18.808Z,34.53
2018-04-13T16:59:46.249Z,34.27
2018-04-13T17:02:14.454Z,37.30
2018-04-13T17:04:41.890Z,35.70
2018-04-13T17:07:09.320Z,35.00
2018-04-13T17:09:36.760Z,31.97
2018-04-13T17:12:04.204Z,37.17
2018-04-13T17:14:31.631Z,33.63
2018-04-13T17:16:59.060Z,33.47
2018-04-13T17:19:27.283Z,34.60
2018-04-13T17:21:54.704Z,36.30
2018-04-13T17:24:22.145Z,35.00
2018-04-13T17:26:50.349Z,31.97
2018-04-13T17:29:17.834Z,33.40
2018-04-13T17:31:45.980Z,34.63
2018-04-13T17:34:13.405Z,34.17
2018-04-13T17:36:41.614Z,34.93
2018-04-13T17:39:09.025Z,35.63
2018-04-13T17:41:37.244Z,35.33
2018-04-13T17:44:04.681Z,34.97
2018-04-13T17:46:32.121Z,37.10
2018-04-13T17:48:59.593Z,35.17
2018-04-13T17:51:27.036Z,37.03
2018-04-13T17:53:54.471Z,37.33
2018-04-13T17:56:22.668Z,33.63
2018-04-13T17:58:50.104Z,37.63
2018-04-13T18:01:18.320Z,34.73
2018-04-13T18:03:45.758Z,35.90
2018-04-13T18:06:13.200Z,35.30
2018-04-13T18:08:40.641Z,37.93
2018-04-13T18:11:08.846Z,38.83
2018-04-13T18:13:36.281Z,40.03
2018-04-13T18:16:04.476Z,41.77
2018-04-13T18:18:31.913Z,40.13
2018-04-13T18:20:59.356Z,43.90
2018-04-13T18:23:27.549Z,42.87
2018-04-13T18:25:54.988Z,43.30
2018-04-13T18:28:23.202Z,45.07
2018-04-13T18:30:50.660Z,44.40
2018-04-13T18:33:18.092Z,46.47
2018-04-13T18:35:45.529Z,48.63
2018-04-13T18:38:13.733Z,44.90
2018-04-13T18:40:41.591Z,51.70
2018-04-13T18:43:09.026Z,50.33
2018-04-13T18:45:37.227Z,54.00
2018-04-13T18:48:04.667Z,49.77
2018-04-13T18:50:32.105Z,51.57
2018-04-13T18:53:00.306Z,50.30
2018-04-13T18:55:27.746Z,52.53
2018-04-13T18:57:55.202Z,52.93
2018-04-13T19:00:22.622Z,51.70
2018-04-13T19:02:50.059Z,50.33
2018-04-13T19:05:17.496Z,48.23
2018-04-13T19:07:44.940Z,52.50
2018-04-13T19:10:12.370Z,49.43
2018-04-13T19:12:40.575Z,48.17
2018-04-13T19:15:08.009Z,51.43
2018-04-13T19:17:35.448Z,52.23
2018-04-13T19:20:03.652Z,51.53
2018-04-13T19:22:31.093Z,52.10
2018-04-13T19:24:58.520Z,50.40
2018-04-13T19:27:25.972Z,49.33
2018-04-13T19:29:53.400Z,49.17
2018-04-13T19:32:20.857Z,50.77
2018-04-13T19:34:49.058Z,58.30
2018-04-13T19:37:16.488Z,51.40
2018-04-13T19:39:43.935Z,52.10
2018-04-13T19:42:11.361Z,55.60
2018-04-13T19:44:38.792Z,54.47
2018-04-13T19:47:07.003Z,58.00
2018-04-13T19:49:34.433Z,57.07
2018-04-13T19:52:01.876Z,53.53
2018-04-13T19:54:30.068Z,59.50
2018-04-13T19:56:57.509Z,56.33
2018-04-13T19:59:25.720Z,59.10
2018-04-13T20:01:53.162Z,54.10
2018-04-13T20:04:20.604Z,53.60
2018-04-13T20:06:48.031Z,55.83
2018-04-13T20:09:15.473Z,57.47
2018-04-13T20:11:42.913Z,60.67
2018-04-13T20:14:10.343Z,61.30
2018-04-13T20:16:37.781Z,63.70
2018-04-13T20:19:05.991Z,65.13
2018-04-13T20:21:33.416Z,72.53
2018-04-13T20:24:00.862Z,72.10
2018-04-13T20:26:29.061Z,74.30
2018-04-13T20:28:56.492Z,76.37
2018-04-13T20:31:23.925Z,79.40
2018-04-13T20:33:51.348Z,81.63
2018-04-13T20:36:18.790Z,86.40
2018-04-13T20:38:46.222Z,85.87
2018-04-13T20:41:13.666Z,86.93
2018-04-13T20:43:41.853Z,94.57
2018-04-13T20:46:09.288Z,94.97
2018-04-13T20:48:37.494Z,98.23
2018-04-13T20:51:04.916Z,95.33
2018-04-13T20:53:33.120Z,98.90
2018-04-13T20:56:00.565Z,94.33
2018-04-13T20:58:28.005Z,101.27
2018-04-13T21:00:56.198Z,98.50
2018-04-13T21:03:23.638Z,98.87
2018-04-13T21:05:51.832Z,102.90
2018-04-13T21:08:19.272Z,104.13
2018-04-13T21:10:46.707Z,103.43
2018-04-13T21:13:14.910Z,99.73
2018-04-13T21:15:42.341Z,104.90
2018-04-13T21:18:10.548Z,106.27
2018-04-13T21:20:38.034Z,101.27
2018-04-13T21:23:05.429Z,100.77
2018-04-13T21:25:33.630Z,106.47
2018-04-13T21:28:01.081Z,103.43
2018-04-13T21:30:28.555Z,98.83
2018-04-13T21:32:56.717Z,109.03
2018-04-13T21:35:24.151Z,103.23
2018-04-13T21:37:51.584Z,102.37
2018-04-13T21:40:19.028Z,102.73
2018-04-13T21:42:46.473Z,105.40
2018-04-13T21:45:13.916Z,107.60
2018-04-13T21:47:41.368Z,104.77
2018-04-13T21:50:08.808Z,106.23
2018-04-13T21:52:36.245Z,111.60
2018-04-13T21:55:03.677Z,106.10
2018-04-13T21:57:31.890Z,108.10
2018-04-13T21:59:59.326Z,103.93
2018-04-13T22:02:26.802Z,105.53
2018-04-13T22:04:54.982Z,98.63
2018-04-13T22:07:22.416Z,106.93
2018-04-13T22:09:49.852Z,110.10
2018-04-13T22:12:29.917Z,106.57
2018-04-13T22:14:57.353Z,108.73
2018-04-13T22:17:25.560Z,107.20
2018-04-13T22:19:52.996Z,109.67
2018-04-13T22:22:20.435Z,106.77
2018-04-13T22:24:48.632Z,105.70
2018-04-13T22:27:16.099Z,107.10
2018-04-13T22:29:43.545Z,107.17
2018-04-13T22:32:10.981Z,108.90
2018-04-13T22:34:39.198Z,107.37
2018-04-13T22:37:06.637Z,115.17
2018-04-13T22:39:34.081Z,106.60
2018-04-13T22:42:01.519Z,112.10
2018-04-13T22:44:29.721Z,116.60
2018-04-13T22:46:57.161Z,113.30
2018-04-13T22:49:25.394Z,111.63
2018-04-13T22:51:52.800Z,116.13
2018-04-13T22:54:21.020Z,113.23
2018-04-13T22:56:48.453Z,118.70
2018-04-13T22:59:15.900Z,117.50
2018-04-13T23:01:43.341Z,113.43
2018-04-13T23:04:10.784Z,118.43
2018-04-13T23:06:38.984Z,112.87
2018-04-13T23:09:06.424Z,119.20
2018-04-13T23:11:33.855Z,115.90
2018-04-13T23:14:02.074Z,122.43
2018-04-13T23:16:29.521Z,123.17
2018-04-13T23:18:56.959Z,121.83
2018-04-13T23:21:24.400Z,119.20
2018-04-13T23:23:52.605Z,119.70
2018-04-13T23:26:20.044Z,122.73
2018-04-13T23:28:47.497Z,120.67
2018-04-13T23:31:14.936Z,118.70
2018-04-13T23:33:43.162Z,123.87
2018-04-13T23:36:10.609Z,109.23
2018-04-13T23:38:38.049Z,127.73
2018-04-13T23:41:05.540Z,113.93
2018-04-13T23:43:33.000Z,115.47
2018-04-13T23:46:00.448Z,123.97
2018-04-13T23:48:27.899Z,121.07
2018-04-13T23:50:55.360Z,118.50
2018-04-13T23:53:22.788Z,121.87
2018-04-13T23:55:50.230Z,121.40
2018-04-13T23:58:17.671Z,126.93
